sensor_id;sensor_type;location;lat;lon;timestamp;P1;durP1;ratioP1;P2;durP2;ratioP2
21245;SDS011;10781;50.928;4.440;2023-04-01T00:01:10;6.60;;;2.03;;
21245;SDS011;10781;50.928;4.440;2023-04-01T00:03:41;5.60;;;2.05;;
21245;SDS011;10781;50.928;4.440;2023-04-01T00:06:07;8.55;;;1.90;;
21245;SDS011;10781;50.928;4.440;2023-04-01T00:08:34;7.53;;;2.00;;
21245;SDS011;10781;50.928;4.440;2023-04-01T00:11:00;7.15;;;1.90;;
21245;SDS011;10781;50.928;4.440;2023-04-01T00:13:26;5.00;;;1.75;;
21245;SDS011;10781;50.928;4.440;2023-04-01T00:15:52;5.90;;;1.83;;
21245;SDS011;10781;50.928;4.440;2023-04-01T00:18:18;7.05;;;1.95;;
21245;SDS011;10781;50.928;4.440;2023-04-01T00:20:48;7.03;;;2.00;;
21245;SDS011;10781;50.928;4.440;2023-04-01T00:23:15;7.28;;;1.98;;
21245;SDS011;10781;50.928;4.440;2023-04-01T00:25:42;7.47;;;2.10;;
21245;SDS011;10781;50.928;4.440;2023-04-01T00:28:09;5.95;;;1.88;;
21245;SDS011;10781;50.928;4.440;2023-04-01T00:30:35;5.50;;;1.77;;
21245;SDS011;10781;50.928;4.440;2023-04-01T00:33:01;7.05;;;1.70;;
21245;SDS011;10781;50.928;4.440;2023-04-01T00:35:28;4.47;;;1.50;;
21245;SDS011;10781;50.928;4.440;2023-04-01T00:37:53;7.00;;;1.65;;
21245;SDS011;10781;50.928;4.440;2023-04-01T00:40:31;2.55;;;1.27;;
21245;SDS011;10781;50.928;4.440;2023-04-01T00:43:02;4.85;;;1.40;;
21245;SDS011;10781;50.928;4.440;2023-04-01T00:45:36;3.45;;;1.30;;
21245;SDS011;10781;50.928;4.440;2023-04-01T00:48:15;7.03;;;1.60;;
21245;SDS011;10781;50.928;4.440;2023-04-01T00:50:48;2.88;;;1.10;;
21245;SDS011;10781;50.928;4.440;2023-04-01T00:53:21;5.53;;;1.60;;
21245;SDS011;10781;50.928;4.440;2023-04-01T00:55:56;5.30;;;1.30;;
21245;SDS011;10781;50.928;4.440;2023-04-01T00:58:29;4.68;;;1.35;;
21245;SDS011;10781;50.928;4.440;2023-04-01T01:00:58;4.60;;;1.10;;
21245;SDS011;10781;50.928;4.440;2023-04-01T01:03:25;2.33;;;1.33;;
21245;SDS011;10781;50.928;4.440;2023-04-01T01:11:23;5.13;;;1.67;;
21245;SDS011;10781;50.928;4.440;2023-04-01T01:14:15;4.05;;;1.90;;
21245;SDS011;10781;50.928;4.440;2023-04-01T01:16:44;5.82;;;1.55;;
21245;SDS011;10781;50.928;4.440;2023-04-01T01:19:28;3.45;;;1.58;;
21245;SDS011;10781;50.928;4.440;2023-04-01T01:24:51;6.13;;;1.73;;
21245;SDS011;10781;50.928;4.440;2023-04-01T01:27:23;5.22;;;1.80;;
21245;SDS011;10781;50.928;4.440;2023-04-01T01:30:22;4.63;;;1.60;;
21245;SDS011;10781;50.928;4.440;2023-04-01T01:33:05;4.15;;;1.60;;
21245;SDS011;10781;50.928;4.440;2023-04-01T01:35:55;5.88;;;1.90;;
21245;SDS011;10781;50.928;4.440;2023-04-01T01:38:26;6.05;;;1.80;;
21245;SDS011;10781;50.928;4.440;2023-04-01T01:40:56;4.70;;;1.95;;
21245;SDS011;10781;50.928;4.440;2023-04-01T01:43:24;3.38;;;1.98;;
21245;SDS011;10781;50.928;4.440;2023-04-01T01:45:56;6.50;;;2.15;;
21245;SDS011;10781;50.928;4.440;2023-04-01T01:48:26;4.38;;;2.40;;
21245;SDS011;10781;50.928;4.440;2023-04-01T01:50:54;4.40;;;2.33;;
21245;SDS011;10781;50.928;4.440;2023-04-01T01:53:20;4.22;;;2.53;;
21245;SDS011;10781;50.928;4.440;2023-04-01T01:55:46;4.90;;;2.40;;
21245;SDS011;10781;50.928;4.440;2023-04-01T01:58:18;3.45;;;2.42;;
21245;SDS011;10781;50.928;4.440;2023-04-01T02:00:53;4.57;;;2.60;;
21245;SDS011;10781;50.928;4.440;2023-04-01T02:03:23;4.93;;;2.70;;
21245;SDS011;10781;50.928;4.440;2023-04-01T02:05:51;4.88;;;3.08;;
21245;SDS011;10781;50.928;4.440;2023-04-01T02:08:21;5.30;;;3.15;;
21245;SDS011;10781;50.928;4.440;2023-04-01T02:11:09;5.38;;;3.00;;
21245;SDS011;10781;50.928;4.440;2023-04-01T02:13:41;5.43;;;2.67;;
21245;SDS011;10781;50.928;4.440;2023-04-01T02:16:21;7.35;;;3.05;;
21245;SDS011;10781;50.928;4.440;2023-04-01T02:18:51;6.50;;;2.70;;
21245;SDS011;10781;50.928;4.440;2023-04-01T02:21:21;6.28;;;3.03;;
21245;SDS011;10781;50.928;4.440;2023-04-01T02:23:49;8.85;;;2.90;;
21245;SDS011;10781;50.928;4.440;2023-04-01T02:26:18;5.28;;;2.80;;
21245;SDS011;10781;50.928;4.440;2023-04-01T02:28:44;6.25;;;3.20;;
21245;SDS011;10781;50.928;4.440;2023-04-01T02:31:13;4.63;;;2.70;;
21245;SDS011;10781;50.928;4.440;2023-04-01T02:33:39;5.75;;;2.60;;
21245;SDS011;10781;50.928;4.440;2023-04-01T02:36:06;3.38;;;2.10;;
21245;SDS011;10781;50.928;4.440;2023-04-01T02:38:37;5.13;;;2.38;;
21245;SDS011;10781;50.928;4.440;2023-04-01T02:41:03;7.72;;;2.83;;
21245;SDS011;10781;50.928;4.440;2023-04-01T02:43:30;5.22;;;2.70;;
21245;SDS011;10781;50.928;4.440;2023-04-01T02:45:55;7.65;;;2.70;;
21245;SDS011;10781;50.928;4.440;2023-04-01T02:48:21;6.75;;;2.60;;
21245;SDS011;10781;50.928;4.440;2023-04-01T02:50:47;6.50;;;2.83;;
21245;SDS011;10781;50.928;4.440;2023-04-01T02:53:13;6.65;;;2.60;;
21245;SDS011;10781;50.928;4.440;2023-04-01T02:55:39;6.72;;;2.53;;
21245;SDS011;10781;50.928;4.440;2023-04-01T02:58:05;5.82;;;2.15;;
21245;SDS011;10781;50.928;4.440;2023-04-01T03:00:30;6.72;;;2.55;;
21245;SDS011;10781;50.928;4.440;2023-04-01T03:02:56;4.15;;;2.40;;
21245;SDS011;10781;50.928;4.440;2023-04-01T03:05:22;8.43;;;2.88;;
21245;SDS011;10781;50.928;4.440;2023-04-01T03:07:48;9.93;;;2.92;;
21245;SDS011;10781;50.928;4.440;2023-04-01T03:10:14;5.25;;;2.60;;
21245;SDS011;10781;50.928;4.440;2023-04-01T03:12:40;7.18;;;2.95;;
21245;SDS011;10781;50.928;4.440;2023-04-01T03:15:06;7.85;;;3.00;;
21245;SDS011;10781;50.928;4.440;2023-04-01T03:17:34;6.25;;;3.20;;
21245;SDS011;10781;50.928;4.440;2023-04-01T03:19:59;6.47;;;2.95;;
21245;SDS011;10781;50.928;4.440;2023-04-01T03:22:25;8.43;;;3.92;;
21245;SDS011;10781;50.928;4.440;2023-04-01T03:24:51;9.88;;;3.50;;
21245;SDS011;10781;50.928;4.440;2023-04-01T03:27:16;10.93;;;3.60;;
21245;SDS011;10781;50.928;4.440;2023-04-01T03:29:42;11.20;;;3.78;;
21245;SDS011;10781;50.928;4.440;2023-04-01T03:32:07;10.02;;;3.80;;
21245;SDS011;10781;50.928;4.440;2023-04-01T03:34:33;9.93;;;4.20;;
21245;SDS011;10781;50.928;4.440;2023-04-01T03:36:59;11.02;;;4.97;;
21245;SDS011;10781;50.928;4.440;2023-04-01T03:39:25;9.13;;;4.32;;
21245;SDS011;10781;50.928;4.440;2023-04-01T03:41:51;11.13;;;3.83;;
21245;SDS011;10781;50.928;4.440;2023-04-01T03:44:16;12.98;;;4.53;;
21245;SDS011;10781;50.928;4.440;2023-04-01T03:46:42;11.10;;;4.35;;
21245;SDS011;10781;50.928;4.440;2023-04-01T03:49:08;10.27;;;5.13;;
21245;SDS011;10781;50.928;4.440;2023-04-01T03:51:38;7.95;;;4.88;;
21245;SDS011;10781;50.928;4.440;2023-04-01T03:54:05;11.32;;;5.45;;
21245;SDS011;10781;50.928;4.440;2023-04-01T03:56:31;11.70;;;5.50;;
21245;SDS011;10781;50.928;4.440;2023-04-01T03:58:57;12.23;;;5.50;;
21245;SDS011;10781;50.928;4.440;2023-04-01T04:01:23;13.40;;;4.93;;
21245;SDS011;10781;50.928;4.440;2023-04-01T04:03:49;8.63;;;5.55;;
21245;SDS011;10781;50.928;4.440;2023-04-01T04:06:16;10.05;;;5.80;;
21245;SDS011;10781;50.928;4.440;2023-04-01T04:08:43;12.18;;;5.43;;
21245;SDS011;10781;50.928;4.440;2023-04-01T04:11:09;11.85;;;5.47;;
21245;SDS011;10781;50.928;4.440;2023-04-01T04:13:35;14.07;;;5.50;;
21245;SDS011;10781;50.928;4.440;2023-04-01T04:16:05;11.57;;;5.90;;
21245;SDS011;10781;50.928;4.440;2023-04-01T04:18:31;9.30;;;5.25;;
21245;SDS011;10781;50.928;4.440;2023-04-01T04:20:56;12.10;;;5.70;;
21245;SDS011;10781;50.928;4.440;2023-04-01T04:23:22;10.85;;;4.90;;
21245;SDS011;10781;50.928;4.440;2023-04-01T04:25:58;10.48;;;4.80;;
21245;SDS011;10781;50.928;4.440;2023-04-01T04:28:29;9.05;;;4.85;;
21245;SDS011;10781;50.928;4.440;2023-04-01T04:30:55;11.57;;;4.80;;
21245;SDS011;10781;50.928;4.440;2023-04-01T04:33:21;9.52;;;4.35;;
21245;SDS011;10781;50.928;4.440;2023-04-01T04:35:48;8.93;;;4.40;;
21245;SDS011;10781;50.928;4.440;2023-04-01T04:38:14;7.20;;;3.90;;
21245;SDS011;10781;50.928;4.440;2023-04-01T04:40:40;6.30;;;3.38;;
21245;SDS011;10781;50.928;4.440;2023-04-01T04:43:09;6.63;;;3.35;;
21245;SDS011;10781;50.928;4.440;2023-04-01T04:45:37;5.60;;;3.65;;
21245;SDS011;10781;50.928;4.440;2023-04-01T04:48:02;5.20;;;3.30;;
21245;SDS011;10781;50.928;4.440;2023-04-01T04:50:28;5.47;;;2.92;;
21245;SDS011;10781;50.928;4.440;2023-04-01T04:52:54;5.05;;;3.05;;
21245;SDS011;10781;50.928;4.440;2023-04-01T04:55:20;6.22;;;3.05;;
21245;SDS011;10781;50.928;4.440;2023-04-01T04:57:46;6.15;;;3.15;;
21245;SDS011;10781;50.928;4.440;2023-04-01T05:00:12;6.05;;;2.67;;
21245;SDS011;10781;50.928;4.440;2023-04-01T05:02:38;3.78;;;2.55;;
21245;SDS011;10781;50.928;4.440;2023-04-01T05:05:03;4.18;;;2.22;;
21245;SDS011;10781;50.928;4.440;2023-04-01T05:07:30;2.83;;;2.40;;
21245;SDS011;10781;50.928;4.440;2023-04-01T05:09:56;4.07;;;2.20;;
21245;SDS011;10781;50.928;4.440;2023-04-01T05:12:21;4.15;;;2.40;;
21245;SDS011;10781;50.928;4.440;2023-04-01T05:14:47;5.13;;;2.28;;
21245;SDS011;10781;50.928;4.440;2023-04-01T05:17:13;4.78;;;2.17;;
21245;SDS011;10781;50.928;4.440;2023-04-01T05:19:38;3.78;;;2.40;;
21245;SDS011;10781;50.928;4.440;2023-04-01T05:22:05;3.67;;;2.05;;
21245;SDS011;10781;50.928;4.440;2023-04-01T05:24:31;4.40;;;1.92;;
21245;SDS011;10781;50.928;4.440;2023-04-01T05:26:57;1.98;;;1.70;;
21245;SDS011;10781;50.928;4.440;2023-04-01T05:29:24;3.10;;;1.80;;
21245;SDS011;10781;50.928;4.440;2023-04-01T05:31:50;3.80;;;1.42;;
21245;SDS011;10781;50.928;4.440;2023-04-01T05:34:16;2.20;;;1.58;;
21245;SDS011;10781;50.928;4.440;2023-04-01T05:36:42;2.88;;;1.77;;
21245;SDS011;10781;50.928;4.440;2023-04-01T05:39:08;2.97;;;1.65;;
21245;SDS011;10781;50.928;4.440;2023-04-01T05:41:34;1.83;;;1.55;;
21245;SDS011;10781;50.928;4.440;2023-04-01T05:44:00;2.30;;;1.73;;
21245;SDS011;10781;50.928;4.440;2023-04-01T05:46:26;2.70;;;2.00;;
21245;SDS011;10781;50.928;4.440;2023-04-01T05:48:52;3.05;;;2.00;;
21245;SDS011;10781;50.928;4.440;2023-04-01T05:51:18;4.75;;;2.50;;
21245;SDS011;10781;50.928;4.440;2023-04-01T05:53:43;5.78;;;2.85;;
21245;SDS011;10781;50.928;4.440;2023-04-01T05:56:09;3.92;;;2.78;;
21245;SDS011;10781;50.928;4.440;2023-04-01T05:58:35;3.78;;;2.92;;
21245;SDS011;10781;50.928;4.440;2023-04-01T06:01:11;6.93;;;3.47;;
21245;SDS011;10781;50.928;4.440;2023-04-01T06:03:36;5.97;;;4.07;;
21245;SDS011;10781;50.928;4.440;2023-04-01T06:06:02;7.55;;;4.03;;
21245;SDS011;10781;50.928;4.440;2023-04-01T06:08:29;4.95;;;3.60;;
21245;SDS011;10781;50.928;4.440;2023-04-01T06:13:50;8.02;;;4.43;;
21245;SDS011;10781;50.928;4.440;2023-04-01T06:16:39;7.38;;;4.00;;
21245;SDS011;10781;50.928;4.440;2023-04-01T06:30:05;4.38;;;3.08;;
21245;SDS011;10781;50.928;4.440;2023-04-01T06:46:47;10.82;;;3.78;;
21245;SDS011;10781;50.928;4.440;2023-04-01T06:49:29;6.72;;;3.65;;
21245;SDS011;10781;50.928;4.440;2023-04-01T06:58:03;6.93;;;3.72;;
21245;SDS011;10781;50.928;4.440;2023-04-01T07:00:36;6.10;;;3.47;;
21245;SDS011;10781;50.928;4.440;2023-04-01T07:05:31;6.00;;;3.15;;
21245;SDS011;10781;50.928;4.440;2023-04-01T07:07:59;6.55;;;3.05;;
21245;SDS011;10781;50.928;4.440;2023-04-01T07:12:56;4.68;;;3.10;;
21245;SDS011;10781;50.928;4.440;2023-04-01T07:15:30;5.45;;;3.63;;
21245;SDS011;10781;50.928;4.440;2023-04-01T07:18:06;3.88;;;2.75;;
21245;SDS011;10781;50.928;4.440;2023-04-01T07:20:46;2.45;;;1.67;;
21245;SDS011;10781;50.928;4.440;2023-04-01T07:23:21;1.98;;;1.40;;
21245;SDS011;10781;50.928;4.440;2023-04-01T07:25:58;1.90;;;1.20;;
21245;SDS011;10781;50.928;4.440;2023-04-01T07:28:30;1.65;;;1.00;;
21245;SDS011;10781;50.928;4.440;2023-04-01T07:31:07;1.35;;;1.00;;
21245;SDS011;10781;50.928;4.440;2023-04-01T07:34:05;1.75;;;0.93;;
21245;SDS011;10781;50.928;4.440;2023-04-01T07:47:45;1.35;;;0.98;;
21245;SDS011;10781;50.928;4.440;2023-04-01T07:58:24;1.98;;;1.10;;
21245;SDS011;10781;50.928;4.440;2023-04-01T08:06:37;1.40;;;0.70;;
21245;SDS011;10781;50.928;4.440;2023-04-01T08:14:50;1.05;;;0.60;;
21245;SDS011;10781;50.928;4.440;2023-04-01T08:22:51;1.75;;;0.88;;
21245;SDS011;10781;50.928;4.440;2023-04-01T08:28:30;1.17;;;0.90;;
21245;SDS011;10781;50.928;4.440;2023-04-01T08:31:12;2.08;;;0.90;;
21245;SDS011;10781;50.928;4.440;2023-04-01T08:33:44;0.80;;;0.70;;
21245;SDS011;10781;50.928;4.440;2023-04-01T08:36:26;0.80;;;0.63;;
21245;SDS011;10781;50.928;4.440;2023-04-01T08:39:06;1.38;;;0.70;;
21245;SDS011;10781;50.928;4.440;2023-04-01T08:55:27;1.00;;;0.90;;
21245;SDS011;10781;50.928;4.440;2023-04-01T08:58:22;1.17;;;0.98;;
21245;SDS011;10781;50.928;4.440;2023-04-01T09:07:05;2.08;;;1.00;;
21245;SDS011;10781;50.928;4.440;2023-04-01T09:12:43;1.02;;;0.85;;
21245;SDS011;10781;50.928;4.440;2023-04-01T09:26:47;1.33;;;0.85;;
21245;SDS011;10781;50.928;4.440;2023-04-01T09:40:21;3.72;;;1.98;;
21245;SDS011;10781;50.928;4.440;2023-04-01T09:45:48;3.90;;;2.67;;
21245;SDS011;10781;50.928;4.440;2023-04-01T09:57:03;2.85;;;1.98;;
21245;SDS011;10781;50.928;4.440;2023-04-01T10:00:10;2.95;;;1.90;;
21245;SDS011;10781;50.928;4.440;2023-04-01T10:11:38;3.17;;;2.10;;
21245;SDS011;10781;50.928;4.440;2023-04-01T10:23:17;3.83;;;2.42;;
21245;SDS011;10781;50.928;4.440;2023-04-01T10:28:35;3.88;;;2.20;;
21245;SDS011;10781;50.928;4.440;2023-04-01T11:27:16;1.77;;;0.70;;
21245;SDS011;10781;50.928;4.440;2023-04-01T11:30:38;1.13;;;0.70;;
21245;SDS011;10781;50.928;4.440;2023-04-01T11:38:06;2.55;;;1.40;;
21245;SDS011;10781;50.928;4.440;2023-04-01T11:41:02;1.30;;;1.20;;
21245;SDS011;10781;50.928;4.440;2023-04-01T12:00:16;1.00;;;0.90;;
21245;SDS011;10781;50.928;4.440;2023-04-01T12:03:05;0.80;;;0.80;;
21245;SDS011;10781;50.928;4.440;2023-04-01T12:05:54;1.20;;;0.98;;
21245;SDS011;10781;50.928;4.440;2023-04-01T12:08:31;1.30;;;0.93;;
21245;SDS011;10781;50.928;4.440;2023-04-01T12:11:10;1.45;;;1.00;;
21245;SDS011;10781;50.928;4.440;2023-04-01T12:16:23;2.22;;;0.98;;
21245;SDS011;10781;50.928;4.440;2023-04-01T12:24:42;0.90;;;0.90;;
21245;SDS011;10781;50.928;4.440;2023-04-01T13:00:23;1.58;;;1.13;;
21245;SDS011;10781;50.928;4.440;2023-04-01T13:08:48;1.05;;;0.95;;
21245;SDS011;10781;50.928;4.440;2023-04-01T13:11:20;1.63;;;1.10;;
21245;SDS011;10781;50.928;4.440;2023-04-01T13:14:07;1.65;;;1.10;;
21245;SDS011;10781;50.928;4.440;2023-04-01T13:16:53;1.80;;;0.90;;
21245;SDS011;10781;50.928;4.440;2023-04-01T13:19:57;0.88;;;0.80;;
21245;SDS011;10781;50.928;4.440;2023-04-01T13:28:05;1.42;;;1.33;;
21245;SDS011;10781;50.928;4.440;2023-04-01T13:33:36;2.17;;;1.33;;
21245;SDS011;10781;50.928;4.440;2023-04-01T13:36:47;4.75;;;2.13;;
21245;SDS011;10781;50.928;4.440;2023-04-01T13:39:20;6.25;;;2.10;;
21245;SDS011;10781;50.928;4.440;2023-04-01T13:44:31;1.95;;;1.20;;
21245;SDS011;10781;50.928;4.440;2023-04-01T13:47:33;2.53;;;1.70;;
21245;SDS011;10781;50.928;4.440;2023-04-01T13:52:57;6.65;;;3.47;;
21245;SDS011;10781;50.928;4.440;2023-04-01T14:10:06;3.97;;;2.15;;
21245;SDS011;10781;50.928;4.440;2023-04-01T14:13:03;2.10;;;1.90;;
21245;SDS011;10781;50.928;4.440;2023-04-01T14:40:58;1.80;;;1.50;;
21245;SDS011;10781;50.928;4.440;2023-04-01T14:49:15;1.73;;;1.50;;
21245;SDS011;10781;50.928;4.440;2023-04-01T14:51:43;1.73;;;1.30;;
21245;SDS011;10781;50.928;4.440;2023-04-01T14:56:43;2.42;;;1.50;;
21245;SDS011;10781;50.928;4.440;2023-04-01T15:07:17;1.40;;;1.30;;
21245;SDS011;10781;50.928;4.440;2023-04-01T15:16:10;2.10;;;1.40;;
21245;SDS011;10781;50.928;4.440;2023-04-01T15:24:21;2.40;;;1.50;;
21245;SDS011;10781;50.928;4.440;2023-04-01T15:38:05;2.92;;;1.75;;
21245;SDS011;10781;50.928;4.440;2023-04-01T15:45:58;4.40;;;1.88;;
21245;SDS011;10781;50.928;4.440;2023-04-01T15:54:22;1.65;;;1.42;;
21245;SDS011;10781;50.928;4.440;2023-04-01T16:14:06;2.40;;;2.05;;
21245;SDS011;10781;50.928;4.440;2023-04-01T16:22:06;2.30;;;1.80;;
21245;SDS011;10781;50.928;4.440;2023-04-01T16:27:16;3.35;;;2.55;;
21245;SDS011;10781;50.928;4.440;2023-04-01T16:33:02;3.08;;;1.83;;
21245;SDS011;10781;50.928;4.440;2023-04-01T16:35:31;2.33;;;1.67;;
21245;SDS011;10781;50.928;4.440;2023-04-01T16:38:16;2.92;;;2.00;;
21245;SDS011;10781;50.928;4.440;2023-04-01T16:40:58;2.53;;;2.20;;
21245;SDS011;10781;50.928;4.440;2023-04-01T16:43:26;3.45;;;2.45;;
21245;SDS011;10781;50.928;4.440;2023-04-01T16:46:12;2.90;;;2.03;;
21245;SDS011;10781;50.928;4.440;2023-04-01T16:57:10;5.55;;;3.20;;
21245;SDS011;10781;50.928;4.440;2023-04-01T17:02:47;4.32;;;2.95;;
21245;SDS011;10781;50.928;4.440;2023-04-01T17:05:20;4.78;;;2.65;;
21245;SDS011;10781;50.928;4.440;2023-04-01T17:08:10;3.47;;;3.03;;
21245;SDS011;10781;50.928;4.440;2023-04-01T17:11:09;4.93;;;2.60;;
21245;SDS011;10781;50.928;4.440;2023-04-01T17:33:03;7.07;;;3.10;;
21245;SDS011;10781;50.928;4.440;2023-04-01T17:58:49;3.30;;;3.00;;
21245;SDS011;10781;50.928;4.440;2023-04-01T18:01:21;3.95;;;3.55;;
21245;SDS011;10781;50.928;4.440;2023-04-01T18:03:59;4.90;;;3.22;;
21245;SDS011;10781;50.928;4.440;2023-04-01T18:09:48;3.75;;;3.33;;
21245;SDS011;10781;50.928;4.440;2023-04-01T18:18:32;9.30;;;6.22;;
21245;SDS011;10781;50.928;4.440;2023-04-01T18:24:18;8.90;;;6.57;;
21245;SDS011;10781;50.928;4.440;2023-04-01T18:29:48;10.98;;;6.90;;
21245;SDS011;10781;50.928;4.440;2023-04-01T18:32:37;9.63;;;6.88;;
21245;SDS011;10781;50.928;4.440;2023-04-01T18:39:20;9.50;;;6.90;;
21245;SDS011;10781;50.928;4.440;2023-04-01T18:47:08;10.55;;;6.70;;
21245;SDS011;10781;50.928;4.440;2023-04-01T18:52:57;10.55;;;6.70;;
21245;SDS011;10781;50.928;4.440;2023-04-01T19:03:48;12.45;;;8.07;;
21245;SDS011;10781;50.928;4.440;2023-04-01T19:12:03;11.93;;;7.78;;
21245;SDS011;10781;50.928;4.440;2023-04-01T19:15:03;11.88;;;8.55;;
21245;SDS011;10781;50.928;4.440;2023-04-01T19:17:46;10.45;;;7.53;;
21245;SDS011;10781;50.928;4.440;2023-04-01T19:20:32;16.42;;;9.30;;
21245;SDS011;10781;50.928;4.440;2023-04-01T19:25:57;12.98;;;9.00;;
21245;SDS011;10781;50.928;4.440;2023-04-01T19:36:53;16.95;;;9.10;;
21245;SDS011;10781;50.928;4.440;2023-04-01T19:42:30;17.35;;;8.98;;
21245;SDS011;10781;50.928;4.440;2023-04-01T19:53:30;16.48;;;8.15;;
21245;SDS011;10781;50.928;4.440;2023-04-01T19:56:02;11.00;;;6.72;;
21245;SDS011;10781;50.928;4.440;2023-04-01T19:59:02;13.48;;;7.47;;
21245;SDS011;10781;50.928;4.440;2023-04-01T20:01:55;11.43;;;7.45;;
21245;SDS011;10781;50.928;4.440;2023-04-01T20:04:28;15.15;;;7.35;;
21245;SDS011;10781;50.928;4.440;2023-04-01T20:14:52;15.18;;;8.65;;
21245;SDS011;10781;50.928;4.440;2023-04-01T20:20:19;23.08;;;9.40;;
21245;SDS011;10781;50.928;4.440;2023-04-01T20:23:02;18.80;;;10.05;;
21245;SDS011;10781;50.928;4.440;2023-04-01T20:31:44;22.13;;;10.48;;
21245;SDS011;10781;50.928;4.440;2023-04-01T20:36:57;19.98;;;9.93;;
21245;SDS011;10781;50.928;4.440;2023-04-01T20:39:48;21.70;;;9.75;;
21245;SDS011;10781;50.928;4.440;2023-04-01T20:53:20;20.10;;;9.88;;
21245;SDS011;10781;50.928;4.440;2023-04-01T21:07:25;20.85;;;12.55;;
21245;SDS011;10781;50.928;4.440;2023-04-01T21:18:39;27.52;;;15.80;;
21245;SDS011;10781;50.928;4.440;2023-04-01T21:33:03;27.13;;;15.45;;
21245;SDS011;10781;50.928;4.440;2023-04-01T21:38:27;25.02;;;13.88;;
21245;SDS011;10781;50.928;4.440;2023-04-01T21:58:13;13.77;;;9.15;;
21245;SDS011;10781;50.928;4.440;2023-04-01T22:03:59;10.90;;;7.65;;
21245;SDS011;10781;50.928;4.440;2023-04-01T22:07:06;12.93;;;8.18;;
21245;SDS011;10781;50.928;4.440;2023-04-01T22:15:27;9.05;;;7.60;;
21245;SDS011;10781;50.928;4.440;2023-04-01T22:23:46;10.63;;;7.53;;
21245;SDS011;10781;50.928;4.440;2023-04-01T22:33:03;12.32;;;9.80;;
21245;SDS011;10781;50.928;4.440;2023-04-01T22:37:46;15.23;;;10.40;;
21245;SDS011;10781;50.928;4.440;2023-04-01T22:43:38;16.02;;;10.60;;
21245;SDS011;10781;50.928;4.440;2023-04-01T22:46:16;15.07;;;11.48;;
21245;SDS011;10781;50.928;4.440;2023-04-01T22:56:57;15.70;;;11.80;;
21245;SDS011;10781;50.928;4.440;2023-04-01T22:59:38;15.80;;;11.55;;
21245;SDS011;10781;50.928;4.440;2023-04-01T23:02:24;16.27;;;11.95;;
21245;SDS011;10781;50.928;4.440;2023-04-01T23:05:03;16.63;;;12.65;;
21245;SDS011;10781;50.928;4.440;2023-04-01T23:07:45;14.82;;;11.20;;
21245;SDS011;10781;50.928;4.440;2023-04-01T23:10:58;16.02;;;10.90;;
21245;SDS011;10781;50.928;4.440;2023-04-01T23:13:29;13.55;;;10.55;;
21245;SDS011;10781;50.928;4.440;2023-04-01T23:16:00;16.08;;;11.52;;
21245;SDS011;10781;50.928;4.440;2023-04-01T23:18:37;14.20;;;11.15;;
21245;SDS011;10781;50.928;4.440;2023-04-01T23:21:13;16.00;;;11.50;;
21245;SDS011;10781;50.928;4.440;2023-04-01T23:26:56;17.25;;;11.15;;
21245;SDS011;10781;50.928;4.440;2023-04-01T23:29:31;16.65;;;11.35;;
21245;SDS011;10781;50.928;4.440;2023-04-01T23:32:02;16.65;;;11.63;;
21245;SDS011;10781;50.928;4.440;2023-04-01T23:34:33;16.45;;;11.48;;
21245;SDS011;10781;50.928;4.440;2023-04-01T23:37:12;16.48;;;11.63;;
21245;SDS011;10781;50.928;4.440;2023-04-01T23:39:57;18.05;;;12.23;;
21245;SDS011;10781;50.928;4.440;2023-04-01T23:42:24;17.42;;;12.70;;
21245;SDS011;10781;50.928;4.440;2023-04-01T23:44:58;18.60;;;12.88;;
21245;SDS011;10781;50.928;4.440;2023-04-01T23:50:20;20.73;;;13.90;;
21245;SDS011;10781;50.928;4.440;2023-04-01T23:52:59;20.10;;;13.65;;
21245;SDS011;10781;50.928;4.440;2023-04-01T23:55:30;21.33;;;14.30;;
